sensor_id;sensor_type;location;lat;lon;timestamp;pressure;altitude;pressure_sealevel;temperature;humidity
12676;BME280;63820;65.654;21.944;2022-12-10T00:01:16;101611.38;;;-6.95;100.00
12676;BME280;63820;65.654;21.944;2022-12-10T00:04:01;101617.75;;;-7.03;100.00
12676;BME280;63820;65.654;21.944;2022-12-10T00:06:46;101622.66;;;-7.06;100.00
12676;BME280;63820;65.654;21.944;2022-12-10T00:09:30;101632.13;;;-7.02;100.00
12676;BME280;63820;65.654;21.944;2022-12-10T00:12:15;101631.25;;;-7.03;100.00
12676;BME280;63820;65.654;21.944;2022-12-10T00:14:59;101629.66;;;-7.01;100.00
12676;BME280;63820;65.654;21.944;2022-12-10T00:17:43;101630.47;;;-7.02;100.00
12676;BME280;63820;65.654;21.944;2022-12-10T00:20:27;101634.78;;;-6.99;100.00
12676;BME280;63820;65.654;21.944;2022-12-10T00:23:11;101625.84;;;-7.10;100.00
12676;BME280;63820;65.654;21.944;2022-12-10T00:26:04;101632.13;;;-7.02;100.00
12676;BME280;63820;65.654;21.944;2022-12-10T00:28:50;101630.31;;;-7.05;100.00
12676;BME280;63820;65.654;21.944;2022-12-10T00:31:36;101646.34;;;-7.04;100.00
12676;BME280;63820;65.654;21.944;2022-12-10T00:34:20;101618.63;;;-7.20;100.00
12676;BME280;63820;65.654;21.944;2022-12-10T00:37:04;101629.31;;;-7.08;100.00
12676;BME280;63820;65.654;21.944;2022-12-10T00:39:48;101623.81;;;-7.17;100.00
12676;BME280;63820;65.654;21.944;2022-12-10T00:42:32;101622.22;;;-7.15;100.00
12676;BME280;63820;65.654;21.944;2022-12-10T00:45:17;101621.28;;;-7.17;100.00
12676;BME280;63820;65.654;21.944;2022-12-10T00:48:02;101629.66;;;-7.18;100.00
12676;BME280;63820;65.654;21.944;2022-12-10T00:50:58;101630.31;;;-7.22;100.00
12676;BME280;63820;65.654;21.944;2022-12-10T00:53:44;101637.25;;;-7.18;100.00
12676;BME280;63820;65.654;21.944;2022-12-10T00:56:30;101639.50;;;-7.25;100.00
12676;BME280;63820;65.654;21.944;2022-12-10T00:59:15;101630.97;;;-7.27;100.00
12676;BME280;63820;65.654;21.944;2022-12-10T01:01:59;101626.72;;;-7.28;100.00
12676;BME280;63820;65.654;21.944;2022-12-10T01:04:44;101627.72;;;-7.24;100.00
12676;BME280;63820;65.654;21.944;2022-12-10T01:07:27;101629.66;;;-7.18;100.00
12676;BME280;63820;65.654;21.944;2022-12-10T01:10:11;101623.53;;;-7.23;100.00
12676;BME280;63820;65.654;21.944;2022-12-10T01:12:56;101629.66;;;-7.18;100.00
12676;BME280;63820;65.654;21.944;2022-12-10T01:15:40;101641.53;;;-7.17;100.00
12676;BME280;63820;65.654;21.944;2022-12-10T01:18:24;101635.38;;;-7.22;100.00
12676;BME280;63820;65.654;21.944;2022-12-10T01:21:10;101646.50;;;-7.19;100.00
12676;BME280;63820;65.654;21.944;2022-12-10T01:23:56;101656.31;;;-7.07;100.00
12676;BME280;63820;65.654;21.944;2022-12-10T01:26:40;101656.69;;;-7.17;100.00
12676;BME280;63820;65.654;21.944;2022-12-10T01:29:24;101671.41;;;-7.09;100.00
12676;BME280;63820;65.654;21.944;2022-12-10T01:32:10;101673.50;;;-7.18;100.00
12676;BME280;63820;65.654;21.944;2022-12-10T01:34:54;101670.91;;;-7.19;100.00
12676;BME280;63820;65.654;21.944;2022-12-10T01:37:38;101667.00;;;-7.13;100.00
12676;BME280;63820;65.654;21.944;2022-12-10T01:40:22;101676.25;;;-7.13;100.00
12676;BME280;63820;65.654;21.944;2022-12-10T01:43:12;101673.66;;;-7.15;100.00
12676;BME280;63820;65.654;21.944;2022-12-10T01:45:57;101678.00;;;-7.12;100.00
12676;BME280;63820;65.654;21.944;2022-12-10T01:48:41;101674.44;;;-7.16;100.00
12676;BME280;63820;65.654;21.944;2022-12-10T01:51:34;101671.84;;;-7.17;100.00
12676;BME280;63820;65.654;21.944;2022-12-10T01:54:22;101668.31;;;-7.21;100.00
12676;BME280;63820;65.654;21.944;2022-12-10T01:57:12;101671.13;;;-7.15;100.00
12676;BME280;63820;65.654;21.944;2022-12-10T02:00:03;101678.13;;;-7.09;100.00
12676;BME280;63820;65.654;21.944;2022-12-10T02:02:58;101671.34;;;-7.10;100.00
12676;BME280;63820;65.654;21.944;2022-12-10T02:05:53;101668.81;;;-7.10;100.00
12676;BME280;63820;65.654;21.944;2022-12-10T02:08:50;101671.19;;;-7.13;100.00
12676;BME280;63820;65.654;21.944;2022-12-10T02:11:42;101675.63;;;-7.09;100.00
12676;BME280;63820;65.654;21.944;2022-12-10T02:14:38;101673.16;;;-7.08;100.00
12676;BME280;63820;65.654;21.944;2022-12-10T02:17:39;101668.91;;;-7.09;100.00
12676;BME280;63820;65.654;21.944;2022-12-10T02:20:33;101678.78;;;-7.13;100.00
12676;BME280;63820;65.654;21.944;2022-12-10T02:23:27;101678.28;;;-7.06;100.00
12676;BME280;63820;65.654;21.944;2022-12-10T02:29:19;101681.03;;;-7.19;100.00
12676;BME280;63820;65.654;21.944;2022-12-10T02:32:07;101692.00;;;-7.19;100.00
12676;BME280;63820;65.654;21.944;2022-12-10T02:34:56;101699.50;;;-7.20;100.00
12676;BME280;63820;65.654;21.944;2022-12-10T02:37:48;101693.09;;;-7.14;100.00
12676;BME280;63820;65.654;21.944;2022-12-10T02:40:35;101692.28;;;-7.13;100.00
12676;BME280;63820;65.654;21.944;2022-12-10T02:43:22;101700.75;;;-7.12;100.00
12676;BME280;63820;65.654;21.944;2022-12-10T02:46:07;101702.13;;;-7.01;100.00
12676;BME280;63820;65.654;21.944;2022-12-10T02:48:52;101699.16;;;-7.10;100.00
12676;BME280;63820;65.654;21.944;2022-12-10T02:51:37;101693.97;;;-7.13;100.00
12676;BME280;63820;65.654;21.944;2022-12-10T03:00:41;101701.53;;;-7.13;100.00
12676;BME280;63820;65.654;21.944;2022-12-10T03:06:33;101698.94;;;-7.15;100.00
12676;BME280;63820;65.654;21.944;2022-12-10T03:09:23;101696.47;;;-7.13;100.00
12676;BME280;63820;65.654;21.944;2022-12-10T03:12:38;101703.56;;;-7.06;100.00
12676;BME280;63820;65.654;21.944;2022-12-10T03:15:27;101701.69;;;-7.10;100.00
12676;BME280;63820;65.654;21.944;2022-12-10T03:18:15;101704.56;;;-7.20;100.00
12676;BME280;63820;65.654;21.944;2022-12-10T03:21:04;101713.38;;;-7.12;100.00
12676;BME280;63820;65.654;21.944;2022-12-10T03:23:49;101722.72;;;-7.11;100.00
12676;BME280;63820;65.654;21.944;2022-12-10T03:26:34;101728.41;;;-7.15;100.00
12676;BME280;63820;65.654;21.944;2022-12-10T03:29:22;101730.38;;;-7.10;100.00
12676;BME280;63820;65.654;21.944;2022-12-10T03:32:07;101729.13;;;-7.18;100.00
12676;BME280;63820;65.654;21.944;2022-12-10T03:34:54;101736.78;;;-7.16;100.00
12676;BME280;63820;65.654;21.944;2022-12-10T03:37:40;101726.75;;;-7.15;100.00
12676;BME280;63820;65.654;21.944;2022-12-10T03:40:25;101734.47;;;-7.12;100.00
12676;BME280;63820;65.654;21.944;2022-12-10T03:43:12;101733.91;;;-7.06;100.00
12676;BME280;63820;65.654;21.944;2022-12-10T03:45:56;101739.53;;;-7.12;100.00
12676;BME280;63820;65.654;21.944;2022-12-10T03:48:40;101738.75;;;-7.11;100.00
12676;BME280;63820;65.654;21.944;2022-12-10T03:51:24;101738.03;;;-7.08;100.00
12676;BME280;63820;65.654;21.944;2022-12-10T03:54:09;101735.34;;;-7.11;100.00
12676;BME280;63820;65.654;21.944;2022-12-10T03:56:53;101730.38;;;-7.10;100.00
12676;BME280;63820;65.654;21.944;2022-12-10T03:59:37;101727.34;;;-7.03;100.00
12676;BME280;63820;65.654;21.944;2022-12-10T04:02:21;101729.00;;;-7.03;100.00
12676;BME280;63820;65.654;21.944;2022-12-10T04:05:06;101728.06;;;-7.05;100.00
12676;BME280;63820;65.654;21.944;2022-12-10T04:07:50;101732.19;;;-7.07;100.00
12676;BME280;63820;65.654;21.944;2022-12-10T04:10:37;101722.84;;;-7.08;100.00
12676;BME280;63820;65.654;21.944;2022-12-10T04:13:22;101727.13;;;-7.07;100.00
12676;BME280;63820;65.654;21.944;2022-12-10T04:16:26;101719.16;;;-7.15;100.00
12676;BME280;63820;65.654;21.944;2022-12-10T04:19:13;101725.53;;;-7.05;100.00
12676;BME280;63820;65.654;21.944;2022-12-10T04:21:58;101727.84;;;-7.10;100.00
12676;BME280;63820;65.654;21.944;2022-12-10T04:25:01;101726.47;;;-7.03;100.00
12676;BME280;63820;65.654;21.944;2022-12-10T04:28:04;101729.72;;;-7.06;100.00
12676;BME280;63820;65.654;21.944;2022-12-10T04:30:48;101735.88;;;-7.01;100.00
12676;BME280;63820;65.654;21.944;2022-12-10T04:33:32;101731.31;;;-7.08;100.00
12676;BME280;63820;65.654;21.944;2022-12-10T04:36:16;101734.63;;;-7.09;100.00
12676;BME280;63820;65.654;21.944;2022-12-10T04:39:00;101748.94;;;-7.09;100.00
12676;BME280;63820;65.654;21.944;2022-12-10T04:41:45;101738.97;;;-7.06;100.00
12676;BME280;63820;65.654;21.944;2022-12-10T04:44:29;101735.66;;;-7.05;100.00
12676;BME280;63820;65.654;21.944;2022-12-10T04:47:14;101752.56;;;-7.04;100.00
12676;BME280;63820;65.654;21.944;2022-12-10T04:49:58;101743.22;;;-7.05;100.00
12676;BME280;63820;65.654;21.944;2022-12-10T04:52:43;101741.72;;;-7.02;100.00
12676;BME280;63820;65.654;21.944;2022-12-10T04:55:26;101752.41;;;-7.07;100.00
12676;BME280;63820;65.654;21.944;2022-12-10T04:58:11;101747.41;;;-7.06;100.00
12676;BME280;63820;65.654;21.944;2022-12-10T05:01:01;101759.19;;;-7.06;100.00
12676;BME280;63820;65.654;21.944;2022-12-10T05:03:45;101749.38;;;-7.00;100.00
12676;BME280;63820;65.654;21.944;2022-12-10T05:06:30;101748.44;;;-7.02;100.00
12676;BME280;63820;65.654;21.944;2022-12-10T05:09:14;101750.16;;;-7.01;100.00
12676;BME280;63820;65.654;21.944;2022-12-10T05:11:59;101741.66;;;-7.03;100.00
12676;BME280;63820;65.654;21.944;2022-12-10T05:14:43;101745.84;;;-7.04;100.00
12676;BME280;63820;65.654;21.944;2022-12-10T05:17:11;101748.44;;;-7.02;100.00
12676;BME280;63820;65.654;21.944;2022-12-10T05:19:55;101751.13;;;-6.99;100.00
12676;BME280;63820;65.654;21.944;2022-12-10T05:22:39;101751.13;;;-6.99;100.00
12676;BME280;63820;65.654;21.944;2022-12-10T05:25:42;101751.41;;;-6.93;100.00
12676;BME280;63820;65.654;21.944;2022-12-10T05:28:40;101752.84;;;-6.98;100.00
12676;BME280;63820;65.654;21.944;2022-12-10T05:31:28;101748.72;;;-6.96;100.00
12676;BME280;63820;65.654;21.944;2022-12-10T05:34:12;101748.66;;;-6.98;100.00
12676;BME280;63820;65.654;21.944;2022-12-10T05:36:57;101748.81;;;-6.95;100.00
12676;BME280;63820;65.654;21.944;2022-12-10T05:39:41;101751.25;;;-6.96;100.00
12676;BME280;63820;65.654;21.944;2022-12-10T05:42:25;101753.13;;;-6.92;100.00
12676;BME280;63820;65.654;21.944;2022-12-10T05:45:09;101747.63;;;-7.01;100.00
12676;BME280;63820;65.654;21.944;2022-12-10T05:47:53;101759.63;;;-6.97;100.00
12676;BME280;63820;65.654;21.944;2022-12-10T05:50:38;101759.72;;;-6.96;100.00
12676;BME280;63820;65.654;21.944;2022-12-10T05:53:22;101759.78;;;-6.94;100.00
12676;BME280;63820;65.654;21.944;2022-12-10T05:56:09;101766.59;;;-6.93;100.00
12676;BME280;63820;65.654;21.944;2022-12-10T05:59:00;101754.59;;;-6.97;100.00
12676;BME280;63820;65.654;21.944;2022-12-10T06:01:45;101759.34;;;-7.03;100.00
12676;BME280;63820;65.654;21.944;2022-12-10T06:04:29;101758.78;;;-6.98;100.00
12676;BME280;63820;65.654;21.944;2022-12-10T06:07:13;101770.41;;;-7.01;100.00
12676;BME280;63820;65.654;21.944;2022-12-10T06:09:57;101768.38;;;-6.90;100.00
12676;BME280;63820;65.654;21.944;2022-12-10T06:12:41;101773.22;;;-6.95;100.00
12676;BME280;63820;65.654;21.944;2022-12-10T06:15:25;101773.53;;;-6.89;100.00
12676;BME280;63820;65.654;21.944;2022-12-10T06:18:12;101780.25;;;-6.89;100.00
12676;BME280;63820;65.654;21.944;2022-12-10T06:20:56;101766.59;;;-6.93;100.00
12676;BME280;63820;65.654;21.944;2022-12-10T06:23:41;101781.75;;;-6.93;100.00
12676;BME280;63820;65.654;21.944;2022-12-10T06:26:25;101782.69;;;-6.91;100.00
12676;BME280;63820;65.654;21.944;2022-12-10T06:29:10;101783.34;;;-6.95;100.00
12676;BME280;63820;65.654;21.944;2022-12-10T06:31:54;101778.06;;;-7.00;100.00
12676;BME280;63820;65.654;21.944;2022-12-10T06:34:38;101778.28;;;-6.95;100.00
12676;BME280;63820;65.654;21.944;2022-12-10T06:37:22;101780.59;;;-7.00;100.00
12676;BME280;63820;65.654;21.944;2022-12-10T06:40:07;101778.69;;;-7.04;100.00
12676;BME280;63820;65.654;21.944;2022-12-10T06:42:51;101776.31;;;-7.01;100.00
12676;BME280;63820;65.654;21.944;2022-12-10T06:45:40;101780.03;;;-6.94;100.00
12676;BME280;63820;65.654;21.944;2022-12-10T06:48:25;101779.56;;;-7.03;100.00
12676;BME280;63820;65.654;21.944;2022-12-10T06:51:10;101789.91;;;-6.99;100.00
12676;BME280;63820;65.654;21.944;2022-12-10T06:53:55;101780.59;;;-7.00;100.00
12676;BME280;63820;65.654;21.944;2022-12-10T06:56:39;101776.25;;;-7.02;100.00
12676;BME280;63820;65.654;21.944;2022-12-10T06:59:24;101778.78;;;-7.02;100.00
12676;BME280;63820;65.654;21.944;2022-12-10T07:02:11;101770.31;;;-7.03;100.00
12676;BME280;63820;65.654;21.944;2022-12-10T07:04:55;101775.75;;;-6.95;100.00
12676;BME280;63820;65.654;21.944;2022-12-10T07:07:40;101781.47;;;-6.99;100.00
12676;BME280;63820;65.654;21.944;2022-12-10T07:10:24;101782.47;;;-6.96;100.00
12676;BME280;63820;65.654;21.944;2022-12-10T07:13:08;101774.66;;;-7.00;100.00
12676;BME280;63820;65.654;21.944;2022-12-10T07:15:52;101779.22;;;-6.93;100.00
12676;BME280;63820;65.654;21.944;2022-12-10T07:18:36;101774.81;;;-6.97;100.00
12676;BME280;63820;65.654;21.944;2022-12-10T07:21:24;101787.22;;;-7.02;100.00
12676;BME280;63820;65.654;21.944;2022-12-10T07:24:13;101776.75;;;-7.09;100.00
12676;BME280;63820;65.654;21.944;2022-12-10T07:26:57;101778.00;;;-7.01;100.00
12676;BME280;63820;65.654;21.944;2022-12-10T07:29:43;101778.69;;;-7.04;100.00
12676;BME280;63820;65.654;21.944;2022-12-10T07:32:27;101774.38;;;-7.06;100.00
12676;BME280;63820;65.654;21.944;2022-12-10T07:35:11;101773.50;;;-7.07;100.00
12676;BME280;63820;65.654;21.944;2022-12-10T07:37:56;101780.44;;;-7.03;100.00
12676;BME280;63820;65.654;21.944;2022-12-10T07:40:40;101781.81;;;-7.09;100.00
12676;BME280;63820;65.654;21.944;2022-12-10T07:43:24;101784.63;;;-7.03;100.00
12676;BME280;63820;65.654;21.944;2022-12-10T07:49:02;101790.47;;;-7.04;100.00
12676;BME280;63820;65.654;21.944;2022-12-10T07:51:48;101785.56;;;-7.01;100.00
12676;BME280;63820;65.654;21.944;2022-12-10T07:54:32;101779.50;;;-7.05;100.00
12676;BME280;63820;65.654;21.944;2022-12-10T07:57:16;101780.50;;;-7.01;100.00
12676;BME280;63820;65.654;21.944;2022-12-10T08:00:00;101773.88;;;-6.99;100.00
12676;BME280;63820;65.654;21.944;2022-12-10T08:02:45;101777.34;;;-6.97;100.00
12676;BME280;63820;65.654;21.944;2022-12-10T08:05:29;101773.22;;;-6.95;100.00
12676;BME280;63820;65.654;21.944;2022-12-10T08:08:13;101773.06;;;-6.98;100.00
12676;BME280;63820;65.654;21.944;2022-12-10T08:10:59;101765.78;;;-6.92;100.00
12676;BME280;63820;65.654;21.944;2022-12-10T08:13:44;101771.34;;;-6.99;100.00
12676;BME280;63820;65.654;21.944;2022-12-10T08:16:29;101761.31;;;-6.98;100.00
12676;BME280;63820;65.654;21.944;2022-12-10T08:19:15;101751.34;;;-6.95;100.00
12676;BME280;63820;65.654;21.944;2022-12-10T08:21:59;101756.31;;;-6.96;100.00
12676;BME280;63820;65.654;21.944;2022-12-10T08:24:44;101756.53;;;-6.92;100.00
12676;BME280;63820;65.654;21.944;2022-12-10T08:27:28;101749.03;;;-6.90;100.00
12676;BME280;63820;65.654;21.944;2022-12-10T08:30:12;101753.00;;;-6.95;100.00
12676;BME280;63820;65.654;21.944;2022-12-10T08:32:56;101751.41;;;-6.93;100.00
12676;BME280;63820;65.654;21.944;2022-12-10T08:35:40;101756.53;;;-6.92;100.00
12676;BME280;63820;65.654;21.944;2022-12-10T08:38:25;101748.00;;;-6.94;100.00
12676;BME280;63820;65.654;21.944;2022-12-10T08:41:15;101758.84;;;-6.96;100.00
12676;BME280;63820;65.654;21.944;2022-12-10T08:44:00;101755.66;;;-6.92;100.00
12676;BME280;63820;65.654;21.944;2022-12-10T08:46:44;101743.44;;;-7.01;100.00
12676;BME280;63820;65.654;21.944;2022-12-10T08:49:28;101756.03;;;-6.84;100.00
12676;BME280;63820;65.654;21.944;2022-12-10T08:52:12;101746.50;;;-6.90;100.00
12676;BME280;63820;65.654;21.944;2022-12-10T08:54:56;101751.69;;;-6.87;100.00
12676;BME280;63820;65.654;21.944;2022-12-10T08:57:40;101753.44;;;-6.86;100.00
12676;BME280;63820;65.654;21.944;2022-12-10T09:00:25;101751.56;;;-6.90;100.00
12676;BME280;63820;65.654;21.944;2022-12-10T09:03:10;101755.16;;;-6.85;100.00
12676;BME280;63820;65.654;21.944;2022-12-10T09:05:54;101756.75;;;-6.87;100.00
12676;BME280;63820;65.654;21.944;2022-12-10T09:08:38;101756.91;;;-6.84;100.00
12676;BME280;63820;65.654;21.944;2022-12-10T09:11:30;101764.00;;;-6.77;100.00
12676;BME280;63820;65.654;21.944;2022-12-10T09:14:14;101770.78;;;-6.76;100.00
12676;BME280;63820;65.654;21.944;2022-12-10T09:17:03;101760.81;;;-6.73;100.00
12676;BME280;63820;65.654;21.944;2022-12-10T09:19:47;101767.75;;;-6.69;100.00
12676;BME280;63820;65.654;21.944;2022-12-10T09:22:31;101753.72;;;-6.80;100.00
12676;BME280;63820;65.654;21.944;2022-12-10T09:25:16;101752.84;;;-6.80;100.00
12676;BME280;63820;65.654;21.944;2022-12-10T09:28:00;101750.56;;;-6.76;100.00
12676;BME280;63820;65.654;21.944;2022-12-10T09:30:44;101751.56;;;-6.72;100.00
12676;BME280;63820;65.654;21.944;2022-12-10T09:33:28;101744.41;;;-6.81;100.00
12676;BME280;63820;65.654;21.944;2022-12-10T09:36:13;101757.50;;;-6.72;100.00
12676;BME280;63820;65.654;21.944;2022-12-10T09:38:57;101751.19;;;-6.62;100.00
12676;BME280;63820;65.654;21.944;2022-12-10T09:51:34;101737.53;;;-6.66;100.00
12676;BME280;63820;65.654;21.944;2022-12-10T09:54:29;101737.53;;;-6.66;100.00
12676;BME280;63820;65.654;21.944;2022-12-10T09:57:23;101738.03;;;-6.73;100.00
12676;BME280;63820;65.654;21.944;2022-12-10T10:00:26;101733.41;;;-6.64;100.00
12676;BME280;63820;65.654;21.944;2022-12-10T10:03:15;101742.72;;;-6.63;100.00
12676;BME280;63820;65.654;21.944;2022-12-10T10:06:02;101739.41;;;-6.62;100.00
12676;BME280;63820;65.654;21.944;2022-12-10T10:08:49;101750.19;;;-6.66;100.00
12676;BME280;63820;65.654;21.944;2022-12-10T10:11:35;101748.88;;;-6.57;100.00
12676;BME280;63820;65.654;21.944;2022-12-10T10:14:25;101743.09;;;-6.55;100.00
12676;BME280;63820;65.654;21.944;2022-12-10T10:17:22;101737.88;;;-6.58;100.00
12676;BME280;63820;65.654;21.944;2022-12-10T10:20:11;101742.38;;;-6.52;100.00
12676;BME280;63820;65.654;21.944;2022-12-10T10:22:57;101735.50;;;-6.55;100.00
12676;BME280;63820;65.654;21.944;2022-12-10T10:25:43;101741.00;;;-6.64;100.00
12676;BME280;63820;65.654;21.944;2022-12-10T10:28:28;101744.31;;;-6.65;100.00
12676;BME280;63820;65.654;21.944;2022-12-10T10:31:20;101741.44;;;-6.54;100.00
12676;BME280;63820;65.654;21.944;2022-12-10T10:34:13;101725.44;;;-6.53;100.00
12676;BME280;63820;65.654;21.944;2022-12-10T10:37:00;101730.78;;;-6.47;100.00
12676;BME280;63820;65.654;21.944;2022-12-10T10:39:49;101728.25;;;-6.47;100.00
12676;BME280;63820;65.654;21.944;2022-12-10T10:42:42;101730.94;;;-6.44;100.00
12676;BME280;63820;65.654;21.944;2022-12-10T10:48:25;101726.09;;;-6.40;100.00
12676;BME280;63820;65.654;21.944;2022-12-10T10:54:00;101723.63;;;-6.38;100.00
12676;BME280;63820;65.654;21.944;2022-12-10T10:56:44;101727.47;;;-6.46;100.00
12676;BME280;63820;65.654;21.944;2022-12-10T10:59:33;101724.34;;;-6.41;100.00
12676;BME280;63820;65.654;21.944;2022-12-10T11:02:35;101722.53;;;-6.43;100.00
12676;BME280;63820;65.654;21.944;2022-12-10T11:08:15;101733.88;;;-6.35;100.00
12676;BME280;63820;65.654;21.944;2022-12-10T11:11:04;101728.81;;;-6.35;100.00
12676;BME280;63820;65.654;21.944;2022-12-10T11:13:49;101737.94;;;-6.39;100.00
12676;BME280;63820;65.654;21.944;2022-12-10T11:16:33;101741.41;;;-6.37;100.00
12676;BME280;63820;65.654;21.944;2022-12-10T11:19:22;101740.69;;;-6.34;100.00
12676;BME280;63820;65.654;21.944;2022-12-10T11:22:21;101742.34;;;-6.35;100.00
12676;BME280;63820;65.654;21.944;2022-12-10T11:25:11;101741.53;;;-6.34;100.00
12676;BME280;63820;65.654;21.944;2022-12-10T11:28:12;101742.56;;;-6.30;100.00
12676;BME280;63820;65.654;21.944;2022-12-10T11:31:29;101745.88;;;-6.31;100.00
12676;BME280;63820;65.654;21.944;2022-12-10T11:34:21;101745.75;;;-6.34;100.00
12676;BME280;63820;65.654;21.944;2022-12-10T11:37:34;101743.16;;;-6.36;100.00
12676;BME280;63820;65.654;21.944;2022-12-10T11:40:30;101744.16;;;-6.32;100.00
12676;BME280;63820;65.654;21.944;2022-12-10T11:49:40;101745.81;;;-6.33;100.00
12676;BME280;63820;65.654;21.944;2022-12-10T11:59:20;101736.03;;;-6.25;100.00
12676;BME280;63820;65.654;21.944;2022-12-10T12:05:52;101736.03;;;-6.25;100.00
12676;BME280;63820;65.654;21.944;2022-12-10T12:14:46;101730.28;;;-6.21;100.00
12676;BME280;63820;65.654;21.944;2022-12-10T12:17:37;101727.63;;;-6.24;100.00
12676;BME280;63820;65.654;21.944;2022-12-10T12:20:48;101733.66;;;-6.20;100.00
12676;BME280;63820;65.654;21.944;2022-12-10T12:26:39;101725.41;;;-6.16;100.00
12676;BME280;63820;65.654;21.944;2022-12-10T12:29:33;101723.75;;;-6.16;100.00
12676;BME280;63820;65.654;21.944;2022-12-10T12:32:25;101727.16;;;-6.15;100.00
12676;BME280;63820;65.654;21.944;2022-12-10T12:35:14;101726.94;;;-6.20;100.00
12676;BME280;63820;65.654;21.944;2022-12-10T12:41:04;101729.88;;;-6.11;100.00
12676;BME280;63820;65.654;21.944;2022-12-10T12:43:53;101731.47;;;-6.13;100.00
12676;BME280;63820;65.654;21.944;2022-12-10T12:46:44;101734.81;;;-6.14;100.00
12676;BME280;63820;65.654;21.944;2022-12-10T12:49:35;101732.81;;;-6.21;100.00
12676;BME280;63820;65.654;21.944;2022-12-10T12:55:17;101744.06;;;-6.14;100.00
12676;BME280;63820;65.654;21.944;2022-12-10T12:58:13;101742.28;;;-6.17;100.00
12676;BME280;63820;65.654;21.944;2022-12-10T13:01:12;101740.03;;;-6.11;100.00
12676;BME280;63820;65.654;21.944;2022-12-10T13:03:59;101747.88;;;-6.05;100.00
12676;BME280;63820;65.654;21.944;2022-12-10T13:13:05;101738.00;;;-6.18;100.00
12676;BME280;63820;65.654;21.944;2022-12-10T13:15:51;101733.81;;;-6.17;100.00
12676;BME280;63820;65.654;21.944;2022-12-10T13:18:39;101732.28;;;-6.14;100.00
12676;BME280;63820;65.654;21.944;2022-12-10T13:21:30;101738.41;;;-6.09;100.00
12676;BME280;63820;65.654;21.944;2022-12-10T13:24:19;101738.41;;;-6.09;100.00
12676;BME280;63820;65.654;21.944;2022-12-10T13:27:17;101741.75;;;-6.10;100.00
12676;BME280;63820;65.654;21.944;2022-12-10T13:33:05;101729.88;;;-6.11;100.00
12676;BME280;63820;65.654;21.944;2022-12-10T13:35:59;101734.28;;;-6.07;100.00
12676;BME280;63820;65.654;21.944;2022-12-10T13:38:56;101739.41;;;-6.05;100.00
12676;BME280;63820;65.654;21.944;2022-12-10T13:45:25;101722.22;;;-6.12;100.00
12676;BME280;63820;65.654;21.944;2022-12-10T13:51:36;101722.22;;;-6.12;100.00
12676;BME280;63820;65.654;21.944;2022-12-10T13:57:30;101722.28;;;-6.11;100.00
12676;BME280;63820;65.654;21.944;2022-12-10T14:00:22;101729.09;;;-6.10;100.00
12676;BME280;63820;65.654;21.944;2022-12-10T14:06:22;101736.75;;;-6.08;100.00
12676;BME280;63820;65.654;21.944;2022-12-10T14:15:15;101731.09;;;-6.03;100.00
12676;BME280;63820;65.654;21.944;2022-12-10T14:18:13;101732.03;;;-6.01;100.00
12676;BME280;63820;65.654;21.944;2022-12-10T14:21:03;101728.50;;;-6.04;100.00
12676;BME280;63820;65.654;21.944;2022-12-10T14:23:49;101728.56;;;-6.03;100.00
12676;BME280;63820;65.654;21.944;2022-12-10T14:26:35;101728.44;;;-6.06;100.00
12676;BME280;63820;65.654;21.944;2022-12-10T14:29:20;101730.16;;;-6.05;100.00
12676;BME280;63820;65.654;21.944;2022-12-10T14:32:05;101733.75;;;-6.00;100.00
12676;BME280;63820;65.654;21.944;2022-12-10T14:34:57;101731.16;;;-6.01;100.00
12676;BME280;63820;65.654;21.944;2022-12-10T14:37:44;101727.38;;;-5.91;100.00
12676;BME280;63820;65.654;21.944;2022-12-10T14:40:37;101719.75;;;-5.91;100.00
12676;BME280;63820;65.654;21.944;2022-12-10T14:43:25;101722.03;;;-5.98;100.00
12676;BME280;63820;65.654;21.944;2022-12-10T14:46:33;101721.16;;;-5.98;100.00
12676;BME280;63820;65.654;21.944;2022-12-10T14:49:24;101721.22;;;-5.97;100.00
12676;BME280;63820;65.654;21.944;2022-12-10T14:52:40;101726.16;;;-6.00;100.00
12676;BME280;63820;65.654;21.944;2022-12-10T14:55:25;101726.38;;;-5.95;100.00
12676;BME280;63820;65.654;21.944;2022-12-10T14:58:18;101735.50;;;-5.99;100.00
12676;BME280;63820;65.654;21.944;2022-12-10T15:01:03;101730.56;;;-5.96;100.00
12676;BME280;63820;65.654;21.944;2022-12-10T15:03:48;101734.75;;;-5.96;100.00
12676;BME280;63820;65.654;21.944;2022-12-10T15:06:34;101728.09;;;-5.94;100.00
12676;BME280;63820;65.654;21.944;2022-12-10T15:09:22;101733.28;;;-5.91;100.00
12676;BME280;63820;65.654;21.944;2022-12-10T15:12:27;101729.19;;;-5.87;100.00
12676;BME280;63820;65.654;21.944;2022-12-10T15:15:31;101730.69;;;-5.93;100.00
12676;BME280;63820;65.654;21.944;2022-12-10T15:18:30;101722.97;;;-5.96;100.00
12676;BME280;63820;65.654;21.944;2022-12-10T15:21:23;101728.09;;;-5.94;100.00
12676;BME280;63820;65.654;21.944;2022-12-10T15:24:26;101728.59;;;-5.82;100.00
12676;BME280;63820;65.654;21.944;2022-12-10T15:30:25;101730.75;;;-5.91;100.00
12676;BME280;63820;65.654;21.944;2022-12-10T15:33:32;101727.44;;;-5.90;100.00
12676;BME280;63820;65.654;21.944;2022-12-10T15:36:33;101714.69;;;-5.91;100.00
12676;BME280;63820;65.654;21.944;2022-12-10T15:39:22;101716.44;;;-5.90;100.00
12676;BME280;63820;65.654;21.944;2022-12-10T15:42:08;101714.63;;;-5.93;100.00
12676;BME280;63820;65.654;21.944;2022-12-10T15:48:03;101715.94;;;-5.82;100.00
12676;BME280;63820;65.654;21.944;2022-12-10T15:50:50;101716.59;;;-5.86;100.00
12676;BME280;63820;65.654;21.944;2022-12-10T15:53:37;101714.78;;;-5.88;100.00
12676;BME280;63820;65.654;21.944;2022-12-10T15:56:22;101718.25;;;-5.86;100.00